Hlavní strana
METAR-TAF:

METAR-TAF

Letiště :

Atlanta, Georgie, Spojené státy americké

zeměpisná šířka: 33-54-43N, zeměpisná délka: 084-56-26W, výška: 393 m

Aktuální stav počasí

Zpráva byla vytvořena před 6 minutami, v 11:35 UTC
Bezvětří
Teplota 21°C
Vlhkost vzduchu 83%
Tlak 1023 hPa
Viditelnost: 16.1 km
Jasno

METAR: KPUJ 241135Z AUTO 00000KT 10SM CLR 21/18 A3020 RMK AO2

Čas: 07:41 (11:41 UTC)


TAF: chybějící

Stav a předpovědi počasí z více než 4 000 letišť (zprávy METAR a TAF).

Červené a žluté tečky na mapě představují dostupné meteorologické stanice.

Když kurzor umístíte na tečku, zobrazí se název stanice.

Pak kliknutím zobrazíte stav a předpověď počasí.

Chcete-li změnit mapu, kliknutím na zelené tlačítko se znaménkem +mapu přiblížíte, kliknutím na zelené tlačítko se znaménkem – mapu oddálíte a kliknutím na zelené šipky přejdete na sousední mapy.


METAR-TAF: